KEKO/EKO METAR and TAF weather

Enter ICAO airport designator
Station Type Date Time Source
KEKO METAR 2020/01/22 14:56 UTC NOAA

KEKO 221456Z AUTO 24005KT 10SM SCT039 BKN049 BKN085 01/M01 A3010 RMK AO2 SLP202 T00111011 53011


Station Type Date Time Source
KEKO Decoded METAR 2020/01/22 14:56 UTC NOAA

ELKO REGIONAL AIRPORT, NV, United States (KEKO) 40-50N 115-47W 1547M
Jan 22, 2020 - 09:56 AM EST / 2020.01.22 1456 UTC
Wind: from the WSW (240 degrees) at 6 MPH (5 KT):0
Visibility: 10 mile(s):0
Sky conditions: mostly cloudy
Temperature: 34.0 F (1.1 C)
Windchill: 28 F (-2 C):1
Dew Point: 30.0 F (-1.1 C)
Relative Humidity: 85%
Pressure (altimeter): 30.1 in. Hg (1019 hPa)
Pressure tendency: 0.03 inches (1.1 hPa) higher than three hours ago
ob: KEKO 221456Z AUTO 24005KT 10SM SCT039 BKN049 BKN085 01/M01 A3010 RMK AO2 SLP202 T00111011 53011
cycle: 15

Station Type Date Time Source
KEKO TAF 2020/01/22 12:36 UTC NOAA

TAF KEKO 221133Z 2212/2312 22005KT P6SM -RASN SCT035 OVC050

Example: see airport list